^^
Datos históricos de la estación: Murcia-Puente Tocinos
Diario Informe para Diciembre 2, 2019 Unidades:  Ingés    Métrico   Ambas
Diario Semanal Mensual Anual
  Máxima: Mínima: Promedio:
Temperatura: 58.8 °F 54.7 °F 56.1 °F
Punto de rocio: 54.5 °F 49.8 °F 52.3 °F
Humedad: 96% 79% 88%
Velocidad viento: 11.2mph 0mph 4.2mph
Racha viento: 21mph - -
Viento- - ESE
Presión: 29.9 in 29.8 in -
Precipitación: 0.38 in    
 
 
Tabla de datos para Diciembre 2, 2019
Hora Temperatura Punto de rocio Presión Viento Velocidad viento Racha viento Humedad Intensidad lluvia(por hora) Nubes
00:04 55.2 °F 50.7 °F 29.8 in NNE 4.1 mph 6.9 mph 85% 0 in
00:09 55.2 °F 50.7 °F 29.8 in NNE 4 mph 7 mph 85% 0 in
00:14 55.2 °F 50.7 °F 29.8 in NE 3.2 mph 5 mph 85% 0 in
00:19 55.2 °F 50.7 °F 29.8 in NE 2.9 mph 5 mph 85% 0 in
00:24 55.2 °F 50.7 °F 29.8 in NE 0.8 mph 3.1 mph 85% 0 in
00:29 55.2 °F 50.7 °F 29.8 in Calm   4.7 mph 85% 0 in
00:34 55.2 °F 50.7 °F 29.8 in ONO 1.7 mph 5.2 mph 85% 0 in
00:39 55.2 °F 50.7 °F 29.8 in ONO 2.4 mph 5 mph 85% 0 in
00:44 55.2 °F 50.7 °F 29.8 in Oeste 2.4 mph 4 mph 85% 0 in
00:49 55.2 °F 50.5 °F 29.8 in Oeste 2.4 mph 4 mph 84.1% 0 in
00:54 55.2 °F 50.5 °F 29.8 in ONO 2 mph 5.9 mph 84% 0 in
00:59 55.4 °F 50.5 °F 29.8 in NNE 1.8 mph 6 mph 83.9% 0 in
01:04 55.6 °F 50.5 °F 29.8 in NE 1.9 mph 6 mph 83% 0 in
01:09 55.6 °F 50.5 °F 29.8 in ENE 2 mph 5 mph 83% 0 in
01:14 55.8 °F 50.7 °F 29.8 in NE 2 mph 8.1 mph 83% 0 in
01:19 55.8 °F 50.7 °F 29.8 in NNE 2 mph 8 mph 83% 0 in
01:24 55.9 °F 50.9 °F 29.8 in NE 3.2 mph 9.2 mph 83% 0 in
01:29 55.9 °F 50.9 °F 29.8 in NE 3.6 mph 9.2 mph 83% 0 in
01:34 56.1 °F 51.1 °F 29.8 in NE 5.2 mph 9.2 mph 83% 0 in
01:39 55.9 °F 51.1 °F 29.8 in NE 5.9 mph 9.2 mph 83.4% 0 in
01:44 55.9 °F 51.3 °F 29.8 in NE 4.7 mph 12.5 mph 84% 0 in
01:49 55.9 °F 51.3 °F 29.8 in NE 4.3 mph 13 mph 84% 0 in
01:54 55.9 °F 51.1 °F 29.8 in NE 5.5 mph 10 mph 84% 0 in
01:59 55.8 °F 51.3 °F 29.8 in NE 5.9 mph 9 mph 84.8% 0 in
02:04 55.8 °F 51.3 °F 29.8 in NE 4.7 mph 7 mph 85% 0 in
02:09 55.8 °F 51.3 °F 29.8 in NE 4.3 mph 9.2 mph 85.2% 0 in
02:14 55.6 °F 51.4 °F 29.8 in NE 5 mph 10.4 mph 86% 0 in
02:19 55.8 °F 51.6 °F 29.8 in NE 5.2 mph 10 mph 86.5% 0 in
02:24 55.8 °F 52 °F 29.8 in NE 5.7 mph 11.5 mph 87% 0 in
02:29 55.8 °F 52 °F 29.8 in NE 5.9 mph 12 mph 87% 0 in
02:34 55.8 °F 52.2 °F 29.8 in NNE 6.1 mph 10.7 mph 87.5% 0 in
02:39 55.6 °F 52.2 °F 29.8 in NNE 6.2 mph 11 mph 88% 0 in
02:44 55.6 °F 52 °F 29.8 in NNE 5.7 mph 9 mph 88% 0 in
02:49 55.4 °F 52 °F 29.8 in NNE 5.4 mph 7.4 mph 88% 0 in
02:54 55.2 °F 52 °F 29.8 in NNE 4.4 mph 7 mph 89% 0 in
02:59 55.2 °F 52 °F 29.8 in NNE 4 mph 7 mph 89% 0 in
03:04 55 °F 52 °F 29.8 in NNE 4 mph 6.9 mph 89% 0 in
03:09 54.9 °F 51.6 °F 29.8 in NE 4 mph 8.5 mph 89% 0 in
03:14 54.9 °F 51.8 °F 29.8 in NE 4.8 mph 11.5 mph 89.8% 0 in
03:19 54.7 °F 51.8 °F 29.8 in NE 5.2 mph 15 mph 90% 0 in
03:24 54.7 °F 52 °F 29.8 in NE 6.9 mph 15 mph 90.2% 0 in
03:29 54.9 °F 52.3 °F 29.8 in NE 7.6 mph 12 mph 91% 0 in
03:34 54.9 °F 52.3 °F 29.8 in NNE 6.4 mph 10 mph 91% 0 in
03:39 54.9 °F 52.3 °F 29.8 in NNE 5.9 mph 9 mph 91% 0 in
03:44 54.9 °F 52.3 °F 29.8 in NNE 4.5 mph 8 mph 91% 0 in
03:49 54.9 °F 52.3 °F 29.8 in NNE 4 mph 3 mph 91% 0 in
03:54 54.9 °F 52.3 °F 29.8 in NNE 1.2 mph 2.9 mph 91% 0 in
03:59 54.9 °F 52.3 °F 29.8 in Calm   3.5 mph 91% 0 in
04:04 55 °F 52.5 °F 29.8 in NE 1.3 mph 4 mph 91% 0 in
04:09 55 °F 52.5 °F 29.8 in SE 1.8 mph 5 mph 91% 0 in
04:14 55 °F 52.5 °F 29.8 in SE 2.6 mph 6.2 mph 91% 0 in
04:19 55.2 °F 52.5 °F 29.8 in ESE 2.9 mph 6 mph 91% 0 in
04:24 55.2 °F 52.5 °F 29.8 in ESE 2.9 mph 6 mph 91% 0 in
04:29 55.2 °F 52.5 °F 29.8 in SE 2.9 mph 5.8 mph 91% 0 in
04:34 55.2 °F 52.7 °F 29.8 in SE 2.9 mph 6 mph 91% 0 in
04:39 55.4 °F 52.9 °F 29.8 in SE 2.9 mph 4 mph 91% 0 in
04:44 55.6 °F 53.1 °F 29.8 in SE 1.8 mph 4.7 mph 91% 0 in
04:49 55.6 °F 53.1 °F 29.8 in Este 1.4 mph 5 mph 91% 0 in
04:54 55.6 °F 52.9 °F 29.8 in Este 2.1 mph 8.1 mph 90.6% 0 in
04:59 55.6 °F 52.7 °F 29.8 in Este 2.4 mph 8 mph 90% 0 in
05:04 55.6 °F 52.5 °F 29.8 in ENE 2.8 mph 5 mph 89.6% 0 in
05:09 55.6 °F 52.3 °F 29.8 in ENE 2.9 mph 5.8 mph 89% 0 in
05:14 55.8 °F 52.3 °F 29.8 in Este 2.9 mph 6 mph 88.5% 0 in
05:19 55.8 °F 52.2 °F 29.8 in NE 2.9 mph 8.1 mph 87.4% 0 in
05:24 55.9 °F 51.8 °F 29.8 in NNE 3.7 mph 8.1 mph 85.9% 0 in
05:29 56.1 °F 51.8 °F 29.8 in NNE 4 mph 10 mph 85% 0 in
05:34 56.5 °F 51.6 °F 29.8 in NE 4.8 mph 10.4 mph 84% 0 in
05:39 56.5 °F 51.8 °F 29.8 in ENE 5.2 mph 9 mph 84.4% 0 in
05:44 56.5 °F 52 °F 29.8 in NE 4.5 mph 11.8 mph 85% 0 in
05:49 56.5 °F 52 °F 29.8 in NE 4.3 mph 12 mph 85% 0 in
05:54 56.5 °F 52 °F 29.8 in NE 4.3 mph 9.7 mph 84.9% 0 in
05:59 56.5 °F 51.6 °F 29.8 in NNE 4.3 mph 11.8 mph 84% 0 in
06:04 56.5 °F 51.6 °F 29.8 in NNE 5.9 mph 13.8 mph 84% 0 in
06:09 56.3 °F 51.4 °F 29.8 in NE 6.4 mph 15.2 mph 83.7% 0 in
06:14 56.1 °F 51.1 °F 29.8 in NE 7.3 mph 15 mph 83% 0 in
06:19 55.9 °F 50.9 °F 29.8 in NE 7.6 mph 20.8 mph 83% 0 in
06:24 55.9 °F 50.5 °F 29.8 in NE 9.4 mph 21 mph 82.2% 0 in
06:29 55.8 °F 50.4 °F 29.8 in NE 10.2 mph 19 mph 82% 0 in
06:34 55.8 °F 50.4 °F 29.8 in NE 10.6 mph 19 mph 82.4% 0 in
06:39 55.8 °F 50.4 °F 29.8 in NE 10.7 mph 16 mph 82% 0 in
06:44 55.8 °F 50.4 °F 29.8 in NE 9.3 mph 15.2 mph 82% 0 in
06:49 55.8 °F 50.5 °F 29.8 in NE 8.7 mph 15 mph 82.8% 0 in
06:54 55.6 °F 50.5 °F 29.8 in ENE 6.9 mph 10 mph 83% 0 in
06:59 55.6 °F 50.5 °F 29.8 in NE 6.2 mph 8.1 mph 83.1% 0 in
07:04 55.4 °F 50.5 °F 29.8 in NE 4.7 mph 8 mph 84% 0 in
07:09 55.2 °F 50.5 °F 29.8 in NE 4.3 mph 9.2 mph 84% 0 in
07:14 55.2 °F 50.7 °F 29.8 in NE 5 mph 9 mph 84.9% 0 in
07:19 55.2 °F 50.7 °F 29.8 in NE 5.2 mph 8.1 mph 85% 0 in
07:24 55.2 °F 50.7 °F 29.8 in NE 4.8 mph 8 mph 85% 0 in
07:29 55.2 °F 50.7 °F 29.8 in NNE 4.7 mph 9.2 mph 85% 0 in
07:34 55.2 °F 50.7 °F 29.8 in NNE 4.7 mph 9.7 mph 85% 0 in
07:39 55.2 °F 50.7 °F 29.8 in NE 4.7 mph 10 mph 85% 0 in
07:44 55.2 °F 50.5 °F 29.8 in NE 5.1 mph 9 mph 84.3% 0 in
07:49 55.2 °F 50.5 °F 29.8 in ENE 5.2 mph 8 mph 84% 0 in
07:54 55.4 °F 50.5 °F 29.8 in NE 3.7 mph 7.4 mph 84% 0 in
07:59 55.4 °F 50.5 °F 29.8 in NE 3.1 mph 10 mph 83.8% 0 in
08:04 55.4 °F 50.2 °F 29.8 in NE 4.7 mph 12.7 mph 82.7% 0 in
08:09 55.6 °F 50.2 °F 29.8 in NE 5.2 mph 13.5 mph 82% 0 in
08:14 55.6 °F 50.2 °F 29.8 in NNE 6.9 mph 14 mph 81.8% 0 in
08:19 55.6 °F 49.8 °F 29.8 in NE 7.6 mph 12.7 mph 81% 0 in
08:24 55.6 °F 49.8 °F 29.8 in NE 6.6 mph 13 mph 81% 0 in
08:29 55.6 °F 50 °F 29.8 in NE 6.2 mph 8.1 mph 81.3% 0 in
08:34 55.6 °F 50.2 °F 29.8 in NE 4.6 mph 10.4 mph 82% 0 in
08:39 55.6 °F 50.2 °F 29.8 in NE 4 mph 10.4 mph 82% 0 in
08:44 55.4 °F 50.2 °F 29.8 in NNE 5.4 mph 10 mph 82.4% 0.01 in
08:49 55.4 °F 50.4 °F 29.8 in NE 5.9 mph 9.2 mph 83.1% 0.01 in
08:54 55.2 °F 50.5 °F 29.8 in NNE 5.4 mph 10.4 mph 84% 0.01 in
08:59 55.2 °F 50.7 °F 29.8 in NNE 5.2 mph 10 mph 84.5% 0.01 in
09:04 55.2 °F 50.7 °F 29.8 in NNE 5.3 mph 9.2 mph 85% 0.01 in
09:09 55.2 °F 50.7 °F 29.8 in NE 5.4 mph 10.4 mph 85% 0.01 in
09:14 55.4 °F 50.9 °F 29.8 in NNE 5.8 mph 10 mph 85% 0.01 in
09:19 55.6 °F 51.1 °F 29.8 in NNE 5.9 mph 10 mph 85% 0.01 in
09:24 55.6 °F 51.1 °F 29.8 in NNE 5.5 mph 10 mph 85% 0.01 in
09:29 55.6 °F 51.1 °F 29.8 in NNE 5.4 mph 10 mph 85.2% 0.01 in
09:34 55.6 °F 51.4 °F 29.8 in NNE 5.8 mph 10 mph 86% 0.01 in
09:39 55.6 °F 51.4 °F 29.9 in NNE 5.9 mph 8 mph 86% 0.01 in
09:44 55.6 °F 51.4 °F 29.9 in North 4.2 mph 7 mph 86% 0.01 in
09:49 55.6 °F 51.4 °F 29.9 in NNE 3.6 mph 9.2 mph 86% 0 in
09:54 55.6 °F 51.4 °F 29.9 in NNE 3.9 mph 10.4 mph 86% 0 in
09:59 55.6 °F 51.4 °F 29.9 in North 4 mph 10.7 mph 86% 0 in
10:04 55.6 °F 51.4 °F 29.9 in NNE 5.1 mph 11 mph 86% 0 in
10:09 55.6 °F 51.4 °F 29.9 in NNE 5.4 mph 11 mph 86% 0 in
10:14 55.6 °F 51.4 °F 29.9 in NNE 4.9 mph 9.2 mph 86% 0 in
10:19 55.6 °F 51.3 °F 29.9 in NNE 4.7 mph 9.7 mph 85.5% 0 in
10:24 55.8 °F 51.3 °F 29.9 in NNE 5.2 mph 10 mph 85% 0 in
10:29 55.8 °F 51.3 °F 29.9 in NNE 5.4 mph 8.1 mph 85% 0 in
10:34 55.8 °F 51.3 °F 29.9 in NNE 5.3 mph 8.1 mph 85% 0 in
10:39 55.9 °F 51.4 °F 29.9 in NNE 5.2 mph 7.4 mph 85% 0 in
10:44 55.9 °F 51.4 °F 29.9 in NNO 4.5 mph 7 mph 85% 0 in
10:49 56.1 °F 51.6 °F 29.9 in NNE 4.3 mph 6.9 mph 84.6% 0 in
10:54 56.1 °F 51.4 °F 29.9 in NNO 3.8 mph 7 mph 84% 0 in
10:59 56.1 °F 51.4 °F 29.9 in NNO 3.6 mph 7 mph 84% 0 in
11:04 56.3 °F 51.4 °F 29.9 in NO 3.2 mph 6 mph 84% 0 in
11:09 56.5 °F 51.6 °F 29.9 in NO 3.1 mph 5 mph 84% 0 in
11:14 56.5 °F 51.6 °F 29.9 in North 2.6 mph 5 mph 84% 0 in
11:19 56.7 °F 51.8 °F 29.9 in North 2.4 mph 5.2 mph 84% 0 in
11:24 56.7 °F 51.6 °F 29.9 in NO 2 mph 6.2 mph 83.3% 0 in
11:29 56.8 °F 51.6 °F 29.9 in NO 1.8 mph 6.9 mph 83% 0 in
11:34 56.8 °F 51.8 °F 29.9 in NO 2.6 mph 7 mph 82.8% 0 in
11:39 56.8 °F 51.4 °F 29.9 in ONO 2.9 mph 6.2 mph 82% 0 in
11:44 57 °F 51.6 °F 29.9 in NO 3.4 mph 6 mph 82% 0 in
11:49 57 °F 51.6 °F 29.9 in ONO 3.6 mph 5 mph 82% 0 in
11:54 57.2 °F 51.8 °F 29.9 in Oeste 2.4 mph 5 mph 82% 0 in
11:59 57.2 °F 51.8 °F 29.9 in ONO 2 mph 5.2 mph 82% 0 in
12:04 57.2 °F 51.8 °F 29.9 in Oeste 2.7 mph 5 mph 82% 0 in
12:09 57.2 °F 51.8 °F 29.9 in Oeste 2.9 mph 5 mph 82% 0 in
12:14 57 °F 51.4 °F 29.9 in ONO 2.1 mph 5 mph 81.4% 0 in
12:19 57 °F 51.6 °F 29.9 in Oeste 1.8 mph 5 mph 82% 0 in
12:24 57 °F 51.6 °F 29.9 in Oeste 1.8 mph 4.6 mph 82% 0 in
12:29 57.2 °F 51.8 °F 29.9 in NO 1.8 mph 5 mph 82% 0 in
12:34 57.2 °F 51.6 °F 29.9 in NO 1.9 mph 5 mph 81.7% 0 in
12:39 57.2 °F 51.4 °F 29.9 in NO 2 mph 5 mph 81% 0 in
12:44 57.4 °F 51.6 °F 29.9 in NO 1.9 mph 3.1 mph 81% 0 in
12:49 57.6 °F 51.6 °F 29.9 in NO 1.8 mph 3.1 mph 81% 0 in
12:54 57.6 °F 52 °F 29.9 in NO 1.5 mph 3 mph 81.5% 0 in
12:59 57.7 °F 52.3 °F 29.9 in NO 1.4 mph   82% 0 in
13:04 57.9 °F 52.3 °F 29.9 in NO 0.4 mph   81.7% 0 in
13:09 57.9 °F 52.2 °F 29.9 in Calm     81% 0 in
13:14 58.1 °F 52.3 °F 29.9 in Calm     81% 0 in
13:19 58.3 °F 52.5 °F 29.9 in Calm   3.6 mph 81% 0 in
13:24 58.3 °F 52.5 °F 29.9 in Calm   4.3 mph 81% 0 in
13:29 58.3 °F 52.3 °F 29.9 in Calm   5 mph 80.5% 0 in
13:34 58.3 °F 52.5 °F 29.9 in Oeste 1.4 mph 5 mph 80.8% 0 in
13:39 58.5 °F 52.3 °F 29.9 in Oeste 2 mph 4 mph 80.3% 0 in
13:44 58.5 °F 52.3 °F 29.9 in Oeste 0.6 mph 2.4 mph 80.4% 0 in
13:49 58.5 °F 52.5 °F 29.9 in Calm   4.6 mph 81% 0 in
13:54 58.5 °F 52.5 °F 29.9 in NNO 1.4 mph 5.8 mph 80.7% 0 in
13:59 58.5 °F 52.3 °F 29.9 in NO 2 mph 6.2 mph 80% 0 in
14:04 58.5 °F 52.3 °F 29.9 in NO 3.2 mph 6 mph 80% 0 in
14:09 58.5 °F 52.3 °F 29.9 in NO 3.6 mph 6 mph 80% 0 in
14:14 58.6 °F 52.3 °F 29.8 in NO 3.2 mph 5 mph 79.6% 0 in
14:19 58.6 °F 52.2 °F 29.8 in ONO 3.1 mph 5 mph 79% 0 in
14:24 58.6 °F 52.2 °F 29.9 in ONO 2.6 mph 4 mph 79% 0 in
14:29 58.6 °F 52.5 °F 29.9 in ONO 2.4 mph 4 mph 79.7% 0 in
14:34 58.6 °F 52.3 °F 29.9 in ONO 2.1 mph 5.2 mph 79.5% 0 in
14:39 58.6 °F 52.3 °F 29.9 in Oeste 2 mph 5 mph 79.6% 0 in
14:44 58.6 °F 52.5 °F 29.8 in Oeste 2.3 mph 5 mph 80% 0 in
14:49 58.8 °F 52.7 °F 29.8 in Oeste 2.4 mph 4 mph 80% 0 in
14:54 58.6 °F 52.3 °F 29.8 in Oeste 2 mph 4.6 mph 79.4% 0 in
14:59 58.6 °F 52.5 °F 29.8 in Sur 1.8 mph 5 mph 80.2% 0 in
15:04 58.6 °F 52.9 °F 29.8 in SSE 2.6 mph 5.8 mph 81% 0 in
15:09 58.5 °F 53.1 °F 29.9 in Sur 2.9 mph 6 mph 82% 0 in
15:14 58.5 °F 53.2 °F 29.9 in Sur 3 mph 5 mph 82.8% 0 in
15:19 58.3 °F 53.2 °F 29.9 in Sur 3.1 mph 6.9 mph 83.3% 0 in
15:24 57.9 °F 53.2 °F 29.9 in Sur 3.5 mph 7 mph 84.4% 0 in
15:29 57.9 °F 53.4 °F 29.9 in Sur 3.6 mph 6.9 mph 85% 0 in
15:34 57.7 °F 53.6 °F 29.9 in SSE 3.6 mph 7 mph 85.9% 0 in
15:39 57.7 °F 53.6 °F 29.9 in Sur 3.6 mph 6.2 mph 86% 0 in
15:44 57.6 °F 53.6 °F 29.9 in Sur 3.9 mph 6.2 mph 86.6% 0 in
15:49 57.6 °F 53.6 °F 29.9 in SE 4 mph 6.9 mph 87% 0 in
15:54 57.4 °F 53.4 °F 29.9 in SSE 4 mph 7 mph 87% 0 in
15:59 57.4 °F 53.8 °F 29.9 in SSE 4 mph 8.1 mph 87.7% 0.02 in
16:04 57 °F 53.4 °F 29.9 in SSE 4.5 mph 8 mph 88% 0.03 in
16:09 56.8 °F 53.4 °F 29.9 in SSE 4.7 mph 7 mph 88.7% 0.03 in
16:14 56.7 °F 53.6 °F 29.9 in Sur 3.5 mph 5 mph 89% 0.03 in
16:19 56.7 °F 53.8 °F 29.9 in Sur 3.1 mph 5 mph 89.7% 0.03 in
16:24 56.7 °F 53.8 °F 29.9 in Sur 2.6 mph 5 mph 90% 0.03 in
16:29 56.7 °F 53.8 °F 29.9 in SE 2.4 mph 5.8 mph 90.1% 0.04 in
16:34 56.7 °F 54.1 °F 29.9 in ESE 2.9 mph 6 mph 91% 0.05 in
16:39 56.5 °F 54 °F 29.9 in SE 3.1 mph 5 mph 91% 0.06 in
16:44 56.3 °F 53.8 °F 29.9 in SE 2.3 mph 5 mph 91% 0.08 in
16:49 56.3 °F 54 °F 29.9 in SE 2 mph   91.6% 0.1 in
16:54 56.3 °F 54 °F 29.9 in SE 0.6 mph 4.6 mph 92% 0.12 in
16:59 56.3 °F 54 °F 29.9 in Calm   5.2 mph 92% 0.12 in
17:04 56.1 °F 53.8 °F 29.9 in ONO 1.8 mph 6.9 mph 92% 0.1 in
17:09 56.1 °F 53.8 °F 29.9 in NNO 2.4 mph 7 mph 92% 0.09 in
17:14 56.1 °F 53.8 °F 29.9 in ONO 2.4 mph 6 mph 92% 0.09 in
17:19 56.1 °F 53.8 °F 29.9 in ONO 2.4 mph 5 mph 92% 0.09 in
17:24 56.1 °F 54 °F 29.9 in Oeste 2.1 mph 4.6 mph 92.7% 0.09 in
17:29 56.1 °F 54.1 °F 29.9 in Oeste 2 mph 5 mph 93% 0.08 in
17:34 56.3 °F 54.1 °F 29.9 in Oeste 2.3 mph 5 mph 93% 0.09 in
17:39 56.3 °F 54.3 °F 29.9 in Oeste 2.4 mph 3 mph 93% 0.09 in
17:44 56.3 °F 54.3 °F 29.9 in Oeste 0.7 mph   93% 0.08 in
17:49 56.3 °F 54.3 °F 29.9 in Calm   2.4 mph 93% 0.06 in
17:54 56.3 °F 54.3 °F 29.9 in Calm   2 mph 93% 0.04 in
17:59 56.5 °F 54.5 °F 29.9 in Calm     93% 0.02 in
18:04 56.5 °F 54.5 °F 29.9 in Calm     93% 0.03 in
18:09 56.5 °F 54.5 °F 29.9 in Calm     93% 0.04 in
18:14 56.3 °F 54.3 °F 29.9 in Calm     93% 0.04 in
18:19 56.3 °F 54.5 °F 29.9 in Calm     93.5% 0.06 in
18:24 56.3 °F 54.5 °F 29.9 in Calm   8.5 mph 93.6% 0.07 in
18:29 56.1 °F 54.1 °F 29.9 in Calm   9 mph 93.2% 0.07 in
18:34 56.1 °F 54.3 °F 29.9 in NE 2.5 mph 8 mph 94% 0.07 in
18:39 56.1 °F 54.3 °F 29.9 in NE 3.6 mph 8.1 mph 94% 0.05 in
18:44 56.1 °F 54.3 °F 29.9 in NE 4.7 mph 8 mph 94% 0.07 in
18:49 55.9 °F 54.3 °F 29.9 in NE 5.2 mph 8.1 mph 94% 0.07 in
18:54 55.9 °F 54.1 °F 29.9 in NE 4.5 mph 8 mph 94% 0.07 in
18:59 55.9 °F 54.1 °F 29.9 in NNE 4.3 mph 7.4 mph 94% 0.07 in
19:04 55.8 °F 54 °F 29.9 in NE 4.3 mph 9.2 mph 94% 0.07 in
19:09 55.6 °F 54 °F 29.9 in NNE 4.3 mph 9 mph 94% 0.07 in
19:14 55.8 °F 54.1 °F 29.9 in NNE 5 mph 8.1 mph 94% 0.06 in
19:19 55.8 °F 54.1 °F 29.9 in NNE 5.2 mph 7 mph 94% 0.05 in
19:24 55.8 °F 54.1 °F 29.9 in NE 4.3 mph 7 mph 94.6% 0.04 in
19:29 55.8 °F 54.3 °F 29.9 in NNE 4 mph 8.1 mph 95% 0.03 in
19:34 55.8 °F 54.3 °F 29.9 in NNE 4.5 mph 9.2 mph 95% 0.03 in
19:39 55.8 °F 54.3 °F 29.9 in NNE 4.7 mph 10.4 mph 95% 0.03 in
19:44 55.6 °F 54.1 °F 29.9 in NNE 5.2 mph 12.7 mph 95% 0.03 in
19:49 55.6 °F 54.1 °F 29.9 in NE 5.4 mph 13 mph 95% 0.02 in
19:54 55.6 °F 54.1 °F 29.9 in NE 5.4 mph 12 mph 95% 0.02 in
19:59 55.4 °F 54.1 °F 29.9 in NNE 5.4 mph 10 mph 95% 0.02 in
20:04 55.4 °F 54 °F 29.9 in NNE 5.4 mph 8.1 mph 95% 0.03 in
20:09 55.4 °F 54 °F 29.9 in NNE 5.4 mph 10.4 mph 95% 0.03 in
20:14 55.4 °F 54.1 °F 29.9 in NNE 5.4 mph 12.7 mph 95% 0.03 in
20:19 55.6 °F 54.1 °F 29.9 in NNE 5.4 mph 13 mph 95% 0.03 in
20:24 55.6 °F 54.1 °F 29.9 in NE 6.5 mph 12 mph 95% 0.04 in
20:29 55.6 °F 54.5 °F 29.9 in NE 6.9 mph 13.8 mph 95.9% 0.04 in
20:34 55.6 °F 54.5 °F 29.9 in NNE 6.5 mph 16.3 mph 96% 0.04 in
20:39 55.6 °F 54.5 °F 29.9 in NNE 6.4 mph 16.1 mph 96% 0.05 in
20:44 55.4 °F 54.3 °F 29.9 in NNE 8.4 mph 15 mph 96% 0.05 in
20:49 55.4 °F 54.3 °F 29.9 in NNE 9.2 mph 13 mph 96% 0.04 in
20:54 55.4 °F 54.3 °F 29.9 in NNE 8.4 mph 12 mph 96% 0.04 in
20:59 55.4 °F 54.3 °F 29.9 in NNE 8.1 mph 11 mph 96% 0.04 in
21:04 55.4 °F 54.3 °F 29.9 in North 6.7 mph 10.4 mph 96% 0.03 in
21:09 55.4 °F 54.3 °F 29.9 in NNE 6.2 mph 10 mph 96% 0.03 in
21:14 55.4 °F 54.3 °F 29.9 in NNE 5.6 mph 10 mph 96% 0.02 in
21:19 55.2 °F 54.1 °F 29.9 in NNE 5.4 mph 10.4 mph 96% 0.02 in
21:24 55.2 °F 54.1 °F 29.9 in NNE 5.4 mph 9 mph 96% 0.03 in
21:29 55.2 °F 54.1 °F 29.9 in NNE 5.4 mph 7 mph 96% 0.03 in
21:34 55.2 °F 54.1 °F 29.9 in NNE 4.2 mph 6 mph 96% 0.03 in
21:39 55.2 °F 54.1 °F 29.9 in NNE 3.6 mph 6 mph 96% 0.02 in
21:44 55.2 °F 54.1 °F 29.9 in NNE 2.7 mph 5 mph 96% 0.02 in
21:49 55.2 °F 54.1 °F 29.9 in NNE 2.4 mph 3.6 mph 96% 0.02 in
21:54 55.2 °F 54.1 °F 29.9 in NNE 2 mph 4.6 mph 96% 0.02 in
21:59 55.2 °F 54.1 °F 29.9 in NNE 1.8 mph 6.9 mph 96% 0.02 in
22:04 55.2 °F 54.1 °F 29.9 in NE 2.6 mph 7 mph 96% 0.02 in
22:09 55.2 °F 54.1 °F 29.9 in NE 2.9 mph 6 mph 96% 0.02 in
22:14 55.2 °F 54.1 °F 29.9 in NE 3.7 mph 15.6 mph 96% 0.02 in
22:19 55 °F 53.8 °F 29.9 in NNE 4 mph 17.3 mph 95.7% 0.02 in
22:24 54.9 °F 53.6 °F 29.9 in NNE 6.1 mph 17.3 mph 95% 0.02 in
22:29 54.9 °F 53.4 °F 29.9 in NNE 6.9 mph 17.5 mph 94.7% 0 in
22:34 54.9 °F 53.2 °F 29.9 in NNE 10.1 mph 17.3 mph 94% 0 in
22:39 54.9 °F 53.1 °F 29.9 in NNE 11.2 mph 16.1 mph 93.7% 0 in
22:44 55 °F 53.1 °F 29.9 in NNE 10.1 mph 17.8 mph 93% 0 in
22:49 55.2 °F 53.2 °F 29.9 in NNE 9.7 mph 18.4 mph 93% 0 in
22:54 55.4 °F 53.4 °F 29.9 in NE 10.1 mph 17 mph 93% 0 in
22:59 55.4 °F 53.4 °F 29.9 in NE 10.2 mph 15.2 mph 93.3% 0 in
23:04 55.4 °F 53.8 °F 29.9 in NE 8.9 mph 15 mph 94% 0 in
23:09 55.4 °F 53.8 °F 29.9 in NE 8.5 mph 17.3 mph 94% 0.01 in
23:14 55.4 °F 53.8 °F 29.9 in NE 8.6 mph 18.5 mph 94% 0.02 in
23:19 55.4 °F 53.8 °F 29.9 in NE 8.7 mph 20.7 mph 94% 0.03 in
23:24 55.2 °F 53.6 °F 29.9 in NNE 9.4 mph 21 mph 94% 0.04 in
23:29 55.2 °F 53.4 °F 29.9 in NNE 9.7 mph 16 mph 94% 0.04 in
23:34 55.2 °F 53.4 °F 29.9 in NE 8.9 mph 15.2 mph 94% 0.04 in
23:39 55.2 °F 53.4 °F 29.9 in NE 8.7 mph 16.8 mph 94% 0.04 in
23:44 55.2 °F 53.6 °F 29.9 in NE 9.1 mph 17.3 mph 94.1% 0.05 in
23:49 55 °F 53.6 °F 29.9 in NE 9.2 mph 18.5 mph 95% 0.06 in
23:54 55 °F 53.6 °F 29.9 in NNE 9.6 mph 19 mph 95% 0.07 in
23:59 55 °F 53.2 °F 29.9 in NNE 9.7 mph 18.4 mph 94.1% 0.08 in
Murcia-Puente Tocinos, España
Compliments of Weather Underground - 3 mb

La estación de MeteoMurcia.com, publica sus datos en los siguientes proyectos:

Weather Underground PWS IMURCIAP2 Meteoclimatic www.awekas.at

W3Counter
Web Analytics